Strona główna
METAR-TAF:

METAR-TAF

Lotnisko :

Port lotniczy Ostrawa

Ostrawa, Czechy

Szerokość geograficzna: 49-41N, Długość geograficzna: 018-07E, wysokość: 256 m

Aktualna obserwacja pogody

Raport powstał 16 minut temu, godzina 23:30 UTC
Wiatr 4 kt od północno-północny wschód
Temperatura 19°C
Wilgotność 78%
Ciśnienie 1017 hPa
Widzialność 10 km lub więcej
Brak chmur poniżej 1500 m i brak chmur cumulonimbus

METAR: LKMT 192330Z 03004KT CAVOK 19/15 Q1017 NOSIG

czas: 01:46 (23:46 UTC)

Prognoza

Raport powstał 46 minut temu, godzina 23:00 UTC
Prognoza ważna od 20 godzina 00 UTC do 21 godzina 00 UTC
Wiatr 2 kt z kierunków zmiennych
Widzialność 10 km lub więcej
Brak chmur poniżej 1500 m i brak chmur cumulonimbus
Przejściowo
od 20 godzina 07 UTC do 20 godzina 18 UTC
Wiatr 10 kt od północny wschód

TAF: LKMT 192300Z 2000/2100 VRB02KT CAVOK TEMPO 2007/2018 04010KT

Obserwacja i prognoza pogody dla ponad 4000 lotnisk (raport METAR i TAF).

Dostępne stacje oznaczono żółtymi i czerwonymi punktami na mapie.

Najedź kursorem aby zobaczyć nazwę stacji.

Kliknij aby zobaczyć obserwacje i prognozy pogody.

Aby zmienić mapę: kliknij na zielony przycisk z czarnym krzyżykiem, aby powiększyć; na zielony przycisk z myślnikiem, aby pomniejszyć; na zielone strzałki, aby przejść do map sąsiednich.


METAR-TAF: